Time;durP1;ratioP1;P1;durP2;ratioP2;P2;SDS_P1;SDS_P2;PMS_P1;PMS_P2;Temp;Humidity;BMP_temperature;BMP_pressure;BME280_temperature;BME280_humidity;BME280_pressure;Samples;Min_cycle;Max_cycle;Signal;HPM_P1;HPM_P2
2021/12/30 00:02:12;;;;;;;99.50;65.97;;;13.40;79.00;;;;;;5228105;28;20053;-30
2021/12/30 00:04:43;;;;;;;97.93;63.27;;;13.40;79.10;;;;;;5228895;28;20041;-33
2021/12/30 00:07:14;;;;;;;105.90;71.13;;;13.40;79.30;;;;;;5228998;28;20116;-35
2021/12/30 00:09:45;;;;;;;130.07;78.37;;;13.40;79.30;;;;;;5228188;28;20144;-36
2021/12/30 00:12:16;;;;;;;266.57;141.70;;;13.40;79.30;;;;;;5228195;28;20051;-28
2021/12/30 00:14:47;;;;;;;253.33;133.57;;;13.40;79.20;;;;;;5228217;28;20474;-33
2021/12/30 00:17:18;;;;;;;167.97;97.83;;;13.40;79.20;;;;;;5228715;28;20073;-31
2021/12/30 00:19:49;;;;;;;158.63;93.20;;;13.40;79.30;;;;;;5227953;28;20048;-32
2021/12/30 00:22:20;;;;;;;156.40;93.53;;;13.40;79.30;;;;;;5228270;28;20067;-33
2021/12/30 00:24:51;;;;;;;166.43;98.27;;;13.30;79.20;;;;;;5228366;28;20052;-33
2021/12/30 00:27:22;;;;;;;162.07;97.80;;;13.30;79.30;;;;;;5228027;28;20056;-33
2021/12/30 00:29:53;;;;;;;145.17;89.50;;;13.30;79.30;;;;;;5228103;28;20467;-31
2021/12/30 00:32:24;;;;;;;168.50;101.47;;;13.40;79.30;;;;;;5227982;28;20060;-29
2021/12/30 00:34:55;;;;;;;186.13;110.60;;;13.40;79.30;;;;;;5228080;28;20072;-33
2021/12/30 00:37:26;;;;;;;202.50;121.20;;;13.30;79.30;;;;;;5227859;28;20504;-36
2021/12/30 00:39:57;;;;;;;211.13;124.23;;;13.30;79.30;;;;;;5227903;28;20041;-32
2021/12/30 00:42:28;;;;;;;206.53;120.23;;;13.30;79.30;;;;;;5210160;28;20128;-36
2021/12/30 00:45:00;;;;;;;190.67;112.17;;;13.30;79.40;;;;;;5228032;28;20542;-33
2021/12/30 00:47:31;;;;;;;143.20;92.33;;;13.30;79.30;;;;;;5227845;28;20497;-35
2021/12/30 00:50:02;;;;;;;127.63;82.33;;;13.30;79.40;;;;;;5227802;28;20124;-39
2021/12/30 00:52:34;;;;;;;117.00;74.37;;;13.30;79.60;;;;;;5230161;28;20471;-32
2021/12/30 00:55:05;;;;;;;110.57;73.17;;;13.30;79.60;;;;;;5231818;28;20052;-33
2021/12/30 00:57:37;;;;;;;121.80;79.40;;;13.30;79.60;;;;;;5214367;28;20040;-32
2021/12/30 01:00:10;;;;;;;127.90;80.60;;;13.30;79.60;;;;;;5214303;28;20048;-33
2021/12/30 01:02:41;;;;;;;128.70;81.30;;;13.30;79.60;;;;;;5231920;28;20079;-31
2021/12/30 01:05:12;;;;;;;118.63;77.97;;;13.30;79.60;;;;;;5213799;28;20060;-33
2021/12/30 01:07:43;;;;;;;90.77;59.63;;;13.30;79.50;;;;;;5231733;28;20489;-32
2021/12/30 01:10:15;;;;;;;74.77;51.87;;;13.30;79.70;;;;;;5232049;28;20115;-31
2021/12/30 01:12:47;;;;;;;74.20;51.08;;;13.30;79.80;;;;;;5232289;28;20072;-31
2021/12/30 01:15:19;;;;;;;66.40;49.33;;;13.30;79.90;;;;;;5213923;28;20049;-34
2021/12/30 01:17:56;;;;;;;82.50;57.30;;;13.30;80.00;;;;;;5198042;28;20041;-28
2021/12/30 01:20:27;;;;;;;154.23;99.23;;;13.30;80.00;;;;;;5231753;28;20078;-28
2021/12/30 01:22:58;;;;;;;125.87;82.80;;;13.30;80.00;;;;;;5231602;28;20045;-31
2021/12/30 01:25:29;;;;;;;145.70;93.90;;;13.30;80.10;;;;;;5231181;28;20073;-35
2021/12/30 01:28:00;;;;;;;135.73;87.10;;;13.30;80.10;;;;;;5231556;28;20072;-35
2021/12/30 01:30:31;;;;;;;148.33;94.17;;;13.30;80.10;;;;;;5232038;28;20064;-30
2021/12/30 01:33:02;;;;;;;128.03;85.63;;;13.30;80.20;;;;;;5231392;28;20068;-36
2021/12/30 01:35:33;;;;;;;124.60;77.87;;;13.30;80.20;;;;;;5231332;28;20462;-36
2021/12/30 01:38:05;;;;;;;119.90;76.50;;;13.20;80.10;;;;;;5231087;28;20048;-34
2021/12/30 01:40:36;;;;;;;123.77;76.93;;;13.20;80.20;;;;;;5231212;28;20041;-33
2021/12/30 01:43:09;;;;;;;103.57;67.37;;;13.20;80.40;;;;;;5231779;28;20045;-32
2021/12/30 01:45:41;;;;;;;102.45;64.05;;;13.20;80.40;;;;;;5231232;28;20111;-33
2021/12/30 01:48:12;;;;;;;103.10;64.93;;;13.20;80.40;;;;;;5180080;28;20569;-34
2021/12/30 01:50:43;;;;;;;89.90;57.90;;;13.20;80.40;;;;;;5231405;28;20095;-32
2021/12/30 01:53:14;;;;;;;80.63;52.90;;;13.20;80.40;;;;;;5214020;28;20446;-32
2021/12/30 01:55:46;;;;;;;73.17;50.27;;;13.20;80.40;;;;;;5231556;28;20077;-35
2021/12/30 01:58:17;;;;;;;63.27;43.37;;;13.20;80.50;;;;;;5230791;28;20083;-29
2021/12/30 02:00:49;;;;;;;52.13;37.17;;;13.20;80.50;;;;;;5230798;28;20170;-31
2021/12/30 02:03:20;;;;;;;49.03;36.37;;;13.20;80.70;;;;;;5230977;28;20052;-28
2021/12/30 02:05:51;;;;;;;53.77;37.80;;;13.20;80.80;;;;;;5230772;28;20049;-33
2021/12/30 02:08:22;;;;;;;51.57;36.73;;;13.20;80.90;;;;;;5230895;28;20049;-33
2021/12/30 02:10:53;;;;;;;53.77;37.87;;;13.20;81.00;;;;;;5230310;28;20067;-33
2021/12/30 02:13:24;;;;;;;47.73;34.97;;;13.20;81.10;;;;;;5230473;28;20049;-31
2021/12/30 02:16:00;;;;;;;49.67;35.90;;;13.20;81.20;;;;;;5230589;28;20406;-32
2021/12/30 02:18:32;;;;;;;48.70;34.60;;;13.20;81.30;;;;;;5230897;28;20045;-35
2021/12/30 02:21:03;;;;;;;54.90;37.20;;;13.20;81.20;;;;;;5230676;28;20395;-34
2021/12/30 02:23:35;;;;;;;49.83;35.63;;;13.20;81.30;;;;;;5196326;28;20137;-31
2021/12/30 02:26:13;;;;;;;49.70;34.20;;;13.20;81.30;;;;;;5230169;28;20517;-31
2021/12/30 02:28:44;;;;;;;52.30;34.97;;;13.20;81.30;;;;;;5230737;28;20048;-31
2021/12/30 02:31:17;;;;;;;56.33;37.57;;;13.20;81.20;;;;;;5230640;28;20053;-34
2021/12/30 02:33:48;;;;;;;;;;;13.10;81.50;;;;;;5230715;28;20041;-33
2021/12/30 02:36:23;;;;;;;60.37;37.63;;;13.10;81.70;;;;;;5230164;28;20019;-33
2021/12/30 02:38:54;;;;;;;51.20;35.07;;;13.10;81.90;;;;;;5212664;28;20037;-33
2021/12/30 02:41:27;;;;;;;57.13;37.80;;;13.10;81.90;;;;;;5230216;28;20438;-36
2021/12/30 02:43:58;;;;;;;56.53;37.80;;;13.20;82.00;;;;;;5230044;28;20410;-32
2021/12/30 02:46:29;;;;;;;56.67;38.20;;;13.20;82.00;;;;;;5212540;28;20045;-33
2021/12/30 02:49:00;;;;;;;58.93;39.10;;;13.20;82.10;;;;;;5230463;28;20441;-30
2021/12/30 02:51:31;;;;;;;57.83;38.40;;;13.20;82.10;;;;;;5229870;28;20194;-33
2021/12/30 02:54:03;;;;;;;57.23;37.90;;;13.20;82.10;;;;;;5229806;28;20044;-31
2021/12/30 02:56:34;;;;;;;56.10;37.23;;;13.20;82.10;;;;;;5212148;28;20394;-30
2021/12/30 02:59:05;;;;;;;54.53;36.30;;;13.20;82.10;;;;;;5229366;28;20080;-33
2021/12/30 03:01:36;;;;;;;59.67;37.30;;;13.20;82.10;;;;;;5230202;28;20435;-36
2021/12/30 03:04:07;;;;;;;53.63;35.33;;;13.20;82.00;;;;;;5229585;28;20158;-29
2021/12/30 03:06:38;;;;;;;51.93;34.67;;;13.20;82.10;;;;;;5211813;28;20119;-34
2021/12/30 03:09:09;;;;;;;51.23;36.10;;;13.10;82.10;;;;;;5211846;28;20044;-33
2021/12/30 03:11:40;;;;;;;53.33;35.77;;;13.20;82.10;;;;;;5230032;28;20044;-31
2021/12/30 03:14:11;;;;;;;51.13;35.07;;;13.20;82.10;;;;;;5211731;28;20053;-33
2021/12/30 03:16:43;;;;;;;55.67;36.70;;;13.20;82.10;;;;;;5228869;28;20055;-36
2021/12/30 03:19:14;;;;;;;52.13;34.70;;;13.20;82.10;;;;;;5229413;28;20478;-31
2021/12/30 03:21:44;;;;;;;48.00;34.30;;;13.20;82.10;;;;;;5211518;28;20051;-35
2021/12/30 03:24:16;;;;;;;48.10;32.43;;;13.20;82.10;;;;;;5229764;28;20485;-32
2021/12/30 03:26:46;;;;;;;48.17;32.37;;;13.20;82.20;;;;;;5229740;28;20049;-33
2021/12/30 03:29:17;;;;;;;48.47;34.10;;;13.20;82.20;;;;;;5229434;28;20097;-30
2021/12/30 03:31:48;;;;;;;49.10;32.73;;;13.20;82.30;;;;;;5229084;28;20069;-33
2021/12/30 03:34:19;;;;;;;44.80;32.53;;;13.10;82.40;;;;;;5228908;28;20151;-36
2021/12/30 03:36:50;;;;;;;48.63;33.53;;;13.10;82.70;;;;;;5194997;28;20482;-34
2021/12/30 03:39:21;;;;;;;52.70;32.30;;;13.10;82.80;;;;;;5228936;28;20402;-31
2021/12/30 03:41:52;;;;;;;49.13;32.70;;;13.10;82.80;;;;;;5229121;28;20052;-35
2021/12/30 03:44:23;;;;;;;48.27;33.00;;;13.10;82.60;;;;;;5228797;28;20041;-33
2021/12/30 03:46:54;;;;;;;44.63;31.70;;;13.10;82.60;;;;;;5228721;28;20045;-31
2021/12/30 03:49:25;;;;;;;48.90;33.10;;;13.20;82.60;;;;;;5229401;28;20410;-35
2021/12/30 03:51:56;;;;;;;48.90;34.03;;;13.10;82.50;;;;;;5228908;28;20044;-31
2021/12/30 03:54:27;;;;;;;53.90;36.10;;;13.20;82.40;;;;;;5211411;28;20065;-30
2021/12/30 03:56:58;;;;;;;54.20;37.00;;;13.20;82.40;;;;;;5228590;28;20525;-32
2021/12/30 03:59:29;;;;;;;50.40;34.57;;;13.20;82.30;;;;;;5228699;28;20076;-33
2021/12/30 04:02:00;;;;;;;49.37;33.87;;;13.20;82.30;;;;;;5228630;28;20075;-33
2021/12/30 04:04:31;;;;;;;49.57;33.50;;;13.20;82.30;;;;;;5210810;28;20056;-30
2021/12/30 04:07:02;;;;;;;46.67;31.70;;;13.20;82.20;;;;;;5228366;28;20135;-34
2021/12/30 04:09:34;;;;;;;43.60;32.50;;;13.20;82.20;;;;;;5227936;28;20128;-31
2021/12/30 04:12:05;;;;;;;46.30;31.73;;;13.20;82.20;;;;;;5228295;28;20120;-39
2021/12/30 04:14:37;;;;;;;43.23;30.40;;;13.20;82.30;;;;;;5210313;28;20102;-32
2021/12/30 04:17:08;;;;;;;44.10;30.80;;;13.20;82.40;;;;;;5228286;28;20045;-33
2021/12/30 04:19:39;;;;;;;42.10;30.03;;;13.20;82.40;;;;;;5194344;28;20053;-38
2021/12/30 04:22:14;;;;;;;43.17;30.50;;;13.20;82.40;;;;;;5207136;28;20056;-34
2021/12/30 04:24:46;;;;;;;43.13;31.13;;;13.20;82.40;;;;;;5210740;28;20134;-37
2021/12/30 04:27:17;;;;;;;39.33;29.20;;;13.20;82.50;;;;;;5206547;28;20041;-31
2021/12/30 04:29:48;;;;;;;39.20;28.40;;;13.10;82.50;;;;;;5207540;28;20078;-31
2021/12/30 04:32:19;;;;;;;41.10;28.80;;;13.20;82.60;;;;;;5207399;28;20056;-31
2021/12/30 04:34:50;;;;;;;44.80;32.13;;;13.20;82.50;;;;;;5207293;28;20445;-27
2021/12/30 04:37:21;;;;;;;41.60;29.60;;;13.30;82.50;;;;;;5207421;28;20049;-31
2021/12/30 04:39:52;;;;;;;37.37;27.67;;;13.40;82.40;;;;;;5223377;28;20419;-32
2021/12/30 04:42:23;;;;;;;;;;;13.60;82.30;;;;;;5216215;28;20048;-29
2021/12/30 04:44:54;;;;;;;;;;;13.80;81.70;;;;;;5228402;28;19921;-29
2021/12/30 04:47:25;;;;;;;;;;;13.90;81.30;;;;;;5222050;28;19928;-31
2021/12/30 04:49:57;;;;;;;;;;;14.00;81.00;;;;;;5220707;28;20397;-32
2021/12/30 04:52:28;;;;;;;;;;;14.10;80.80;;;;;;5210275;28;19925;-31
2021/12/30 04:54:59;;;;;;;;;;;14.20;80.70;;;;;;5207887;28;19975;-30
2021/12/30 04:57:30;;;;;;;;;;;14.20;80.50;;;;;;5207812;28;20404;-30
2021/12/30 05:00:01;;;;;;;;;;;14.20;80.50;;;;;;5207624;28;19925;-29
2021/12/30 05:02:44;;;;;;;39.77;30.07;;;14.20;80.40;;;;;;5206869;28;19921;-37
2021/12/30 05:05:15;;;;;;;;;;;12.90;83.10;;;;;;5207928;28;20050;-32
2021/12/30 05:07:46;;;;;;;36.73;26.37;;;11.50;87.90;;;;;;5207397;28;20279;-32
2021/12/30 05:10:17;;;;;;;36.83;27.10;;;10.80;90.20;;;;;;5207149;28;20053;-30
2021/12/30 05:12:49;;;;;;;35.47;25.60;;;10.40;90.90;;;;;;5207520;28;20398;-32
2021/12/30 05:15:20;;;;;;;39.80;27.70;;;10.20;91.40;;;;;;5206112;28;20450;-26
2021/12/30 05:17:51;;;;;;;36.47;25.97;;;10.10;91.70;;;;;;5206912;28;20045;-31
2021/12/30 05:20:22;;;;;;;37.27;25.27;;;10.00;92.10;;;;;;5206940;28;20056;-29
2021/12/30 05:22:53;;;;;;;36.17;26.23;;;10.50;91.70;;;;;;5206615;28;20045;-32
2021/12/30 05:25:24;;;;;;;;;;;11.10;90.70;;;;;;5206344;28;20041;-35
2021/12/30 05:27:55;;;;;;;;;;;11.70;89.70;;;;;;5208096;28;20408;-35
2021/12/30 05:30:26;;;;;;;34.50;25.80;;;12.10;88.30;;;;;;5206912;28;20002;-30
2021/12/30 05:32:57;;;;;;;38.53;27.97;;;12.50;87.00;;;;;;5207165;28;20463;-30
2021/12/30 05:35:28;;;;;;;40.17;27.77;;;12.70;86.00;;;;;;5222002;28;20502;-34
2021/12/30 05:38:01;;;;;;;36.80;26.30;;;12.90;85.30;;;;;;5207404;28;20045;-35
2021/12/30 05:40:32;;;;;;;;;;;13.10;84.80;;;;;;5211181;28;20407;-34
2021/12/30 05:43:03;;;;;;;36.47;26.70;;;13.20;84.30;;;;;;5226105;28;20390;-33
2021/12/30 05:45:34;;;;;;;47.17;31.67;;;13.30;84.00;;;;;;5210508;28;20495;-28
2021/12/30 05:48:05;;;;;;;52.40;35.00;;;13.30;83.80;;;;;;5210997;28;20053;-30
2021/12/30 05:50:36;;;;;;;55.53;36.33;;;13.40;83.60;;;;;;5192052;28;20049;-30
2021/12/30 05:53:07;;;;;;;50.47;34.20;;;13.40;83.40;;;;;;5210239;28;20045;-33
2021/12/30 05:55:38;;;;;;;37.70;27.60;;;13.50;83.20;;;;;;5210396;28;20041;-32
2021/12/30 05:58:09;;;;;;;35.37;26.53;;;13.50;83.10;;;;;;5210788;28;20382;-35
2021/12/30 06:00:42;;;;;;;38.10;26.80;;;13.50;83.00;;;;;;5210590;28;20095;-31
2021/12/30 06:03:14;;;;;;;34.63;25.27;;;13.60;82.90;;;;;;5210125;28;20041;-33
2021/12/30 06:05:47;;;;;;;34.53;24.77;;;13.50;82.80;;;;;;5210402;28;20056;-33
2021/12/30 06:08:18;;;;;;;31.87;24.37;;;13.60;82.80;;;;;;5209965;28;20049;-35
2021/12/30 06:10:49;;;;;;;34.00;24.80;;;13.50;82.80;;;;;;5210434;28;20084;-34
2021/12/30 06:13:20;;;;;;;34.87;26.03;;;13.50;82.70;;;;;;5209765;28;20046;-30
2021/12/30 06:15:51;;;;;;;34.77;23.93;;;13.50;82.70;;;;;;5209754;28;20057;-30
2021/12/30 06:18:22;;;;;;;36.37;25.87;;;13.60;82.70;;;;;;5209964;28;20096;-35
2021/12/30 06:20:53;;;;;;;35.20;24.97;;;13.50;82.70;;;;;;5209775;28;20056;-32
2021/12/30 06:23:24;;;;;;;34.53;27.20;;;13.60;82.70;;;;;;5209709;28;20060;-35
2021/12/30 06:25:55;;;;;;;33.30;25.87;;;13.60;82.80;;;;;;5209788;28;20407;-35
2021/12/30 06:28:26;;;;;;;37.03;29.63;;;13.50;82.80;;;;;;5209700;28;20056;-33
2021/12/30 06:30:57;;;;;;;34.83;26.40;;;13.60;82.90;;;;;;5209520;28;20053;-37
2021/12/30 06:33:27;;;;;;;34.73;25.13;;;13.60;82.90;;;;;;5209563;28;20068;-34
2021/12/30 06:35:58;;;;;;;35.23;24.63;;;13.50;82.90;;;;;;5209842;28;20431;-34
2021/12/30 06:38:29;;;;;;;31.10;23.03;;;13.50;83.00;;;;;;5209209;28;20084;-34
2021/12/30 06:41:00;;;;;;;33.03;24.10;;;13.50;83.10;;;;;;5209171;28;20069;-33
2021/12/30 06:43:31;;;;;;;33.13;24.23;;;13.50;83.20;;;;;;5208509;28;20061;-34
2021/12/30 06:46:05;;;;;;;31.07;22.93;;;13.50;83.20;;;;;;5208691;28;20053;-33
2021/12/30 06:48:36;;;;;;;32.10;23.00;;;13.50;84.00;;;;;;5209366;28;20050;-31
2021/12/30 06:51:07;;;;;;;34.13;25.33;;;13.50;83.20;;;;;;5208466;28;20038;-28
2021/12/30 06:53:44;;;;;;;40.63;30.47;;;13.50;83.20;;;;;;5209123;28;20075;-34
2021/12/30 06:56:15;;;;;;;97.60;61.50;;;13.50;83.30;;;;;;5209236;28;20368;-30
2021/12/30 06:58:46;;;;;;;139.87;85.00;;;13.50;83.30;;;;;;5207586;28;20057;-35
2021/12/30 07:01:17;;;;;;;146.70;89.20;;;13.50;83.30;;;;;;5209152;28;20398;-33
2021/12/30 07:03:48;;;;;;;146.67;89.47;;;13.50;83.30;;;;;;5207635;28;20046;-35
2021/12/30 07:06:19;;;;;;;165.90;97.60;;;13.40;83.30;;;;;;5208747;28;20045;-33
2021/12/30 07:08:50;;;;;;;179.10;97.77;;;13.40;83.30;;;;;;5210969;28;20422;-37
2021/12/30 07:11:21;;;;;;;170.87;94.10;;;13.40;83.30;;;;;;5228806;28;20044;-31
2021/12/30 07:13:52;;;;;;;111.67;65.63;;;13.40;83.30;;;;;;5229234;28;20045;-31
2021/12/30 07:16:23;;;;;;;140.77;71.47;;;13.40;83.40;;;;;;5228996;28;20055;-33
2021/12/30 07:18:54;;;;;;;143.80;68.23;;;13.40;83.40;;;;;;5229101;28;20431;-34
2021/12/30 07:21:25;;;;;;;89.23;46.67;;;13.40;83.50;;;;;;5228891;28;20049;-36
2021/12/30 07:23:56;;;;;;;55.93;35.67;;;13.40;83.50;;;;;;5228846;28;20048;-32
2021/12/30 07:26:27;;;;;;;47.67;31.23;;;13.40;83.60;;;;;;5228736;28;20049;-35
2021/12/30 07:28:58;;;;;;;42.17;29.97;;;13.40;83.70;;;;;;5228861;28;20049;-38
2021/12/30 07:31:29;;;;;;;48.47;34.37;;;13.40;83.80;;;;;;5210981;28;20041;-34
2021/12/30 07:34:00;;;;;;;59.97;41.93;;;13.40;83.80;;;;;;5226976;28;20548;-30
2021/12/30 07:36:31;;;;;;;63.50;45.47;;;13.40;83.90;;;;;;5228768;28;20155;-37
2021/12/30 07:39:03;;;;;;;68.00;45.60;;;13.30;83.90;;;;;;5210302;28;20041;-32
2021/12/30 07:41:34;;;;;;;78.97;48.07;;;13.30;84.00;;;;;;5228613;28;20171;-33
2021/12/30 07:44:05;;;;;;;71.63;45.50;;;13.30;84.00;;;;;;5228766;28;20143;-31
2021/12/30 07:46:36;;;;;;;57.93;37.33;;;13.30;84.10;;;;;;5228142;28;20051;-34
2021/12/30 07:49:07;;;;;;;41.97;30.03;;;13.30;84.20;;;;;;5228448;28;20402;-37
2021/12/30 07:51:39;;;;;;;42.10;31.10;;;13.30;84.30;;;;;;5210177;28;20095;-33
2021/12/30 07:54:10;;;;;;;42.70;31.10;;;13.30;84.30;;;;;;5184602;28;20427;-31
2021/12/30 07:56:41;;;;;;;43.23;30.57;;;13.30;84.40;;;;;;5184079;28;20049;-38
2021/12/30 07:59:12;;;;;;;65.77;41.23;;;13.30;84.40;;;;;;5136005;28;20568;-35
2021/12/30 08:01:43;;;;;;;78.60;49.10;;;13.30;84.50;;;;;;5168020;28;20046;-35
2021/12/30 08:04:14;;;;;;;76.20;48.57;;;13.30;84.50;;;;;;5184770;28;20050;-29
2021/12/30 08:06:46;;;;;;;70.10;46.83;;;13.30;84.60;;;;;;5136401;28;20053;-36
2021/12/30 08:09:17;;;;;;;97.40;66.00;;;13.30;84.60;;;;;;5150350;28;20518;-32
2021/12/30 08:11:48;;;;;;;128.17;94.90;;;13.30;84.70;;;;;;5156631;28;20455;-34
2021/12/30 08:14:19;;;;;;;108.63;79.07;;;13.30;84.70;;;;;;5124021;28;20058;-31
2021/12/30 08:16:51;;;;;;;69.73;49.83;;;13.30;84.70;;;;;;5182548;28;20104;-37
2021/12/30 08:19:21;;;;;;;61.50;41.77;;;13.30;84.70;;;;;;5106118;29;20063;-31
2021/12/30 08:21:52;;;;;;;65.03;45.87;;;13.20;84.70;;;;;;5121882;29;20059;-30
2021/12/30 08:24:23;;;;;;;73.90;51.23;;;13.30;84.80;;;;;;5121038;29;20043;-35
2021/12/30 08:26:55;;;;;;;71.67;52.47;;;13.30;84.80;;;;;;5120722;29;20559;-33
2021/12/30 08:29:26;;;;;;;76.83;54.97;;;13.30;84.90;;;;;;5121585;29;20220;-31
2021/12/30 08:31:58;;;;;;;73.63;51.17;;;13.30;84.90;;;;;;5140661;28;20518;-33
2021/12/30 08:34:28;;;;;;;80.93;54.47;;;13.20;84.90;;;;;;5161115;28;20054;-35
2021/12/30 08:36:59;;;;;;;80.77;55.37;;;13.30;85.10;;;;;;5161727;28;20070;-31
2021/12/30 08:39:30;;;;;;;58.63;42.20;;;13.30;85.10;;;;;;5145665;28;20086;-36
2021/12/30 08:42:03;;;;;;;68.63;51.43;;;13.30;85.20;;;;;;5145493;28;20554;-34
2021/12/30 08:44:34;;;;;;;62.30;51.77;;;13.30;85.30;;;;;;5161689;28;20058;-31
2021/12/30 08:47:11;;;;;;;68.53;58.20;;;13.30;85.40;;;;;;5161147;28;20565;-38
2021/12/30 08:49:47;;;;;;;70.13;55.70;;;13.30;86.00;;;;;;5150567;28;20124;-36
2021/12/30 08:52:19;;;;;;;70.77;58.20;;;13.30;85.60;;;;;;5181688;28;20058;-30
2021/12/30 08:54:51;;;;;;;67.97;58.93;;;13.20;85.60;;;;;;5165547;28;20046;-34
2021/12/30 08:57:22;;;;;;;61.13;49.57;;;13.20;85.70;;;;;;5181387;28;20516;-29
2021/12/30 08:59:55;;;;;;;61.87;47.37;;;13.30;85.90;;;;;;5181820;28;20049;-36
2021/12/30 09:02:29;;;;;;;56.03;40.17;;;13.20;86.00;;;;;;5181677;28;20188;-32
2021/12/30 09:05:00;;;;;;;52.23;40.10;;;13.20;86.10;;;;;;5181754;28;20590;-37
2021/12/30 09:07:31;;;;;;;53.87;37.80;;;13.20;86.20;;;;;;5181610;28;20050;-36
2021/12/30 09:10:03;;;;;;;49.87;35.40;;;13.20;86.20;;;;;;5181138;28;20958;-37
2021/12/30 09:12:34;;;;;;;54.10;36.75;;;13.20;86.30;;;;;;5189227;28;20057;-30
2021/12/30 09:15:05;;;;;;;47.40;35.80;;;13.20;86.40;;;;;;5207017;28;20050;-34
2021/12/30 09:17:38;;;;;;;49.87;35.93;;;13.20;87.00;;;;;;5208579;28;20087;-34
2021/12/30 09:20:10;;;;;;;52.13;35.87;;;13.20;86.50;;;;;;5208333;28;20069;-31
2021/12/30 09:22:41;;;;;;;50.13;35.50;;;13.20;86.60;;;;;;5208478;28;20113;-35
2021/12/30 09:25:12;;;;;;;62.37;41.67;;;13.20;86.70;;;;;;5208656;28;20041;-33
2021/12/30 09:27:43;;;;;;;58.43;42.33;;;13.20;86.80;;;;;;5208378;28;20489;-36
2021/12/30 09:30:15;;;;;;;55.50;40.27;;;13.20;86.90;;;;;;5201847;28;20145;-34
2021/12/30 09:32:50;;;;;;;56.20;37.73;;;13.10;86.90;;;;;;5201028;28;20064;-35
2021/12/30 09:35:21;;;;;;;53.17;37.20;;;13.10;86.90;;;;;;5207151;28;20049;-33
2021/12/30 09:37:52;;;;;;;51.27;36.97;;;13.10;87.00;;;;;;5208325;28;20053;-33
2021/12/30 09:40:25;;;;;;;51.77;35.77;;;13.10;87.00;;;;;;5208326;28;20045;-29
2021/12/30 09:43:01;;;;;;;;;;;13.10;87.10;;;;;;5208486;28;20056;-29
2021/12/30 09:45:33;;;;;;;55.93;40.00;;;13.10;87.20;;;;;;5207773;28;19921;-32
2021/12/30 09:48:09;;;;;;;65.20;45.27;;;13.10;87.30;;;;;;5206715;28;20041;-33
2021/12/30 09:50:46;;;;;;;71.17;48.90;;;13.10;87.40;;;;;;5208121;28;20430;-30
2021/12/30 09:53:19;;;;;;;66.17;46.73;;;13.10;88.00;;;;;;5207944;28;20049;-29
2021/12/30 09:55:51;;;;;;;60.83;42.05;;;13.10;87.60;;;;;;5207442;28;20037;-34
2021/12/30 09:58:22;;;;;;;54.10;39.35;;;13.10;87.70;;;;;;5208060;28;20037;-33
2021/12/30 10:00:54;;;;;;;57.70;42.87;;;13.10;87.80;;;;;;5193826;28;20045;-30
2021/12/30 10:03:27;;;;;;;64.45;42.40;;;13.10;88.40;;;;;;5207843;28;20050;-36
2021/12/30 10:06:18;;;;;;;58.10;42.40;;;13.10;88.00;;;;;;5209675;28;20065;-32
2021/12/30 10:09:01;;;;;;;57.57;42.37;;;13.10;88.20;;;;;;5209682;28;20049;-33
2021/12/30 10:11:45;;;;;;;57.67;41.07;;;13.00;88.30;;;;;;5230394;28;20044;-31
2021/12/30 10:14:30;;;;;;;57.20;41.30;;;13.10;88.60;;;;;;5230086;28;20083;-34
2021/12/30 10:17:20;;;;;;;51.03;38.80;;;13.10;88.70;;;;;;5230128;28;20052;-30
2021/12/30 10:19:52;;;;;;;56.27;39.63;;;13.00;88.80;;;;;;5230299;28;20394;-31
2021/12/30 10:22:24;;;;;;;53.33;38.57;;;13.10;89.00;;;;;;5229998;28;20130;-31
2021/12/30 10:24:55;;;;;;;51.20;40.22;;;13.00;89.00;;;;;;5228182;28;20055;-34
2021/12/30 10:27:28;;;;;;;55.00;39.57;;;13.00;89.20;;;;;;5195588;28;20128;-32
2021/12/30 10:29:59;;;;;;;52.60;39.58;;;13.00;89.30;;;;;;5229930;28;20076;-29
2021/12/30 10:32:30;;;;;;;50.73;39.80;;;13.00;89.50;;;;;;5229987;28;20087;-32
2021/12/30 10:35:12;;;;;;;49.17;36.13;;;13.00;89.60;;;;;;5229667;28;20488;-31
2021/12/30 10:37:46;;;;;;;50.50;37.27;;;13.00;89.80;;;;;;5229965;28;20486;-30
2021/12/30 10:40:31;;;;;;;53.37;36.20;;;13.00;89.90;;;;;;5212341;28;20045;-34
2021/12/30 10:43:26;;;;;;;48.27;36.53;;;13.00;90.00;;;;;;5212031;28;20490;-33
2021/12/30 10:46:08;;;;;;;50.73;37.50;;;13.00;90.00;;;;;;5229782;28;20048;-34
2021/12/30 10:48:45;;;;;;;54.43;39.80;;;13.00;90.10;;;;;;5211921;28;20493;-39
2021/12/30 10:51:43;;;;;;;55.23;39.47;;;13.00;90.20;;;;;;5229499;28;20065;-32
2021/12/30 10:54:16;;;;;;;57.63;41.20;;;13.00;90.30;;;;;;5145368;28;20054;-30
2021/12/30 10:56:50;;;;;;;54.35;39.67;;;13.00;90.40;;;;;;5145756;28;20054;-30
2021/12/30 10:59:23;;;;;;;53.27;39.20;;;13.00;90.40;;;;;;5131405;28;20508;-34
2021/12/30 11:02:00;;;;;;;53.65;38.95;;;13.00;90.40;;;;;;5143557;28;20504;-32
2021/12/30 11:04:38;;;;;;;55.37;40.40;;;13.00;90.40;;;;;;5143153;28;20102;-35
2021/12/30 11:07:11;;;;;;;56.43;41.73;;;13.00;90.40;;;;;;5127137;28;20055;-33
2021/12/30 11:09:46;;;;;;;62.17;45.70;;;13.10;90.40;;;;;;5122339;29;20051;-34
2021/12/30 11:12:29;;;;;;;64.13;46.87;;;13.10;90.40;;;;;;5138003;28;20474;-35
2021/12/30 11:15:05;;;;;;;59.20;41.22;;;13.10;90.40;;;;;;5142799;28;20047;-37
2021/12/30 11:17:36;;;;;;;56.03;41.60;;;13.10;90.40;;;;;;5142816;28;20051;-33
2021/12/30 11:20:09;;;;;;;54.77;42.47;;;13.10;90.40;;;;;;5143022;28;20061;-30
2021/12/30 11:22:40;;;;;;;61.33;46.22;;;13.10;90.40;;;;;;5142785;28;20055;-35
2021/12/30 11:25:14;;;;;;;62.50;46.60;;;13.10;90.30;;;;;;5142686;28;20058;-30
2021/12/30 11:27:46;;;;;;;57.13;43.97;;;13.10;90.30;;;;;;5142774;28;20185;-30
2021/12/30 11:30:17;;;;;;;59.10;43.83;;;13.10;90.30;;;;;;5156188;28;20056;-34
2021/12/30 11:32:49;;;;;;;58.87;44.80;;;13.10;90.30;;;;;;5221265;28;20051;-32
2021/12/30 11:35:21;;;;;;;56.67;42.67;;;13.10;90.30;;;;;;5224044;28;20132;-31
2021/12/30 11:37:53;;;;;;;61.10;44.40;;;13.10;90.30;;;;;;5206944;28;20120;-32
2021/12/30 11:40:25;;;;;;;68.07;51.23;;;13.10;90.30;;;;;;5224077;28;20049;-36
2021/12/30 11:43:09;;;;;;;59.15;43.78;;;13.10;90.30;;;;;;5223874;28;20037;-31
2021/12/30 11:45:45;;;;;;;57.60;41.50;;;13.10;90.30;;;;;;5224180;28;20053;-37
2021/12/30 11:48:25;;;;;;;58.63;42.07;;;13.10;90.30;;;;;;5223038;28;20504;-37
2021/12/30 11:51:15;;;;;;;57.80;41.63;;;13.10;90.30;;;;;;5206949;28;20083;-34
2021/12/30 11:53:47;;;;;;;55.40;40.00;;;13.10;90.30;;;;;;5211203;28;20057;-35
2021/12/30 11:56:23;;;;;;;63.67;44.53;;;13.10;90.40;;;;;;5207024;28;20143;-36
2021/12/30 11:58:59;;;;;;;55.73;41.10;;;13.10;90.40;;;;;;5223341;28;20237;-33
2021/12/30 12:01:33;;;;;;;54.70;40.63;;;13.10;90.50;;;;;;5207954;28;20060;-33
2021/12/30 12:04:11;;;;;;;53.83;39.93;;;13.10;90.50;;;;;;5226069;28;20111;-33
2021/12/30 12:06:57;;;;;;;56.17;43.03;;;13.10;90.50;;;;;;5225795;28;20052;-31
2021/12/30 12:09:31;;;;;;;57.63;40.63;;;13.10;90.60;;;;;;5225641;28;20059;-33
2021/12/30 12:12:12;;;;;;;53.27;38.40;;;13.00;90.60;;;;;;5225930;28;20041;-31
2021/12/30 12:14:52;;;;;;;55.27;41.80;;;13.00;90.60;;;;;;5226007;28;20045;-33
2021/12/30 12:17:51;;;;;;;56.37;41.70;;;13.10;90.60;;;;;;5225336;28;20622;-31
2021/12/30 12:20:28;;;;;;;57.90;43.47;;;13.00;90.60;;;;;;5225794;28;20048;-31
2021/12/30 12:23:30;;;;;;;70.75;49.75;;;13.00;90.70;;;;;;5192331;28;20053;-33
2021/12/30 12:26:11;;;;;;;65.53;46.23;;;13.00;90.80;;;;;;5224393;28;20045;-30
2021/12/30 12:28:43;;;;;;;67.73;46.20;;;13.00;90.80;;;;;;5228095;28;20395;-29
2021/12/30 12:31:14;;;;;;;70.85;48.95;;;13.10;90.70;;;;;;5210146;28;20041;-31
2021/12/30 12:33:45;;;;;;;68.40;51.50;;;13.20;90.50;;;;;;5209940;28;20118;-35
2021/12/30 12:36:17;;;;;;;54.50;41.37;;;13.30;90.40;;;;;;5184607;28;20156;-36
2021/12/30 12:38:49;;;;;;;58.43;40.73;;;13.40;90.30;;;;;;5168353;28;20150;-30
2021/12/30 12:41:22;;;;;;;51.57;37.73;;;13.40;90.70;;;;;;5184946;28;20085;-32
2021/12/30 12:44:06;;;;;;;59.27;42.47;;;13.50;90.20;;;;;;5184802;28;20054;-31
2021/12/30 12:46:47;;;;;;;57.37;40.07;;;13.50;90.10;;;;;;5184724;28;20144;-31
2021/12/30 12:49:33;;;;;;;73.40;51.10;;;13.50;90.20;;;;;;5183488;28;20042;-30
2021/12/30 12:52:05;;;;;;;91.37;61.40;;;13.50;90.10;;;;;;5184869;28;20409;-33
2021/12/30 12:54:35;;;;;;;61.03;45.37;;;13.50;90.20;;;;;;5184516;28;20056;-35
2021/12/30 12:57:10;;;;;;;50.30;37.57;;;13.40;90.20;;;;;;5184528;28;20132;-37
2021/12/30 12:59:41;;;;;;;43.20;33.47;;;13.40;90.20;;;;;;5184992;28;20050;-32